sensor_id;sensor_type;location;lat;lon;timestamp;P1;durP1;ratioP1;P2;durP2;ratioP2
21675;SDS011;10999;51.332;9.458;2023-01-15T00:03:57;3.03;;;1.27;;
21675;SDS011;10999;51.332;9.458;2023-01-15T00:06:25;3.40;;;1.35;;
21675;SDS011;10999;51.332;9.458;2023-01-15T00:08:53;3.45;;;1.20;;
21675;SDS011;10999;51.332;9.458;2023-01-15T00:11:19;4.05;;;1.10;;
21675;SDS011;10999;51.332;9.458;2023-01-15T00:13:47;3.40;;;1.00;;
21675;SDS011;10999;51.332;9.458;2023-01-15T00:16:19;2.45;;;1.02;;
21675;SDS011;10999;51.332;9.458;2023-01-15T00:18:53;3.53;;;1.02;;
21675;SDS011;10999;51.332;9.458;2023-01-15T00:21:22;1.73;;;0.70;;
21675;SDS011;10999;51.332;9.458;2023-01-15T00:23:49;3.13;;;0.57;;
21675;SDS011;10999;51.332;9.458;2023-01-15T00:26:35;2.50;;;0.85;;
21675;SDS011;10999;51.332;9.458;2023-01-15T00:29:21;1.05;;;0.45;;
21675;SDS011;10999;51.332;9.458;2023-01-15T00:31:55;1.30;;;0.60;;
21675;SDS011;10999;51.332;9.458;2023-01-15T00:34:24;3.08;;;0.93;;
21675;SDS011;10999;51.332;9.458;2023-01-15T00:36:52;0.90;;;0.40;;
21675;SDS011;10999;51.332;9.458;2023-01-15T00:39:19;1.75;;;0.50;;
21675;SDS011;10999;51.332;9.458;2023-01-15T00:41:46;1.27;;;0.40;;
21675;SDS011;10999;51.332;9.458;2023-01-15T00:44:13;2.22;;;0.60;;
21675;SDS011;10999;51.332;9.458;2023-01-15T00:46:40;0.70;;;0.15;;
21675;SDS011;10999;51.332;9.458;2023-01-15T00:49:07;0.52;;;0.35;;
21675;SDS011;10999;51.332;9.458;2023-01-15T00:51:35;1.75;;;0.40;;
21675;SDS011;10999;51.332;9.458;2023-01-15T00:54:02;0.60;;;0.32;;
21675;SDS011;10999;51.332;9.458;2023-01-15T00:56:29;1.63;;;0.30;;
21675;SDS011;10999;51.332;9.458;2023-01-15T00:58:56;1.23;;;0.22;;
21675;SDS011;10999;51.332;9.458;2023-01-15T01:01:26;0.95;;;0.20;;
21675;SDS011;10999;51.332;9.458;2023-01-15T01:03:52;1.40;;;0.20;;
21675;SDS011;10999;51.332;9.458;2023-01-15T01:06:19;0.17;;;0.10;;
21675;SDS011;10999;51.332;9.458;2023-01-15T01:08:46;0.55;;;0.28;;
21675;SDS011;10999;51.332;9.458;2023-01-15T01:11:15;0.50;;;0.30;;
21675;SDS011;10999;51.332;9.458;2023-01-15T01:13:44;0.73;;;0.30;;
21675;SDS011;10999;51.332;9.458;2023-01-15T01:16:26;0.60;;;0.20;;
21675;SDS011;10999;51.332;9.458;2023-01-15T01:18:53;0.50;;;0.30;;
21675;SDS011;10999;51.332;9.458;2023-01-15T01:21:20;0.32;;;0.20;;
21675;SDS011;10999;51.332;9.458;2023-01-15T01:23:47;0.10;;;0.10;;
21675;SDS011;10999;51.332;9.458;2023-01-15T01:26:14;0.75;;;0.20;;
21675;SDS011;10999;51.332;9.458;2023-01-15T01:28:41;0.40;;;0.20;;
21675;SDS011;10999;51.332;9.458;2023-01-15T01:31:08;0.45;;;0.20;;
21675;SDS011;10999;51.332;9.458;2023-01-15T01:33:35;0.68;;;0.20;;
21675;SDS011;10999;51.332;9.458;2023-01-15T01:36:02;0.20;;;0.10;;
21675;SDS011;10999;51.332;9.458;2023-01-15T01:38:29;0.63;;;0.20;;
21675;SDS011;10999;51.332;9.458;2023-01-15T01:40:56;0.20;;;0.10;;
21675;SDS011;10999;51.332;9.458;2023-01-15T01:43:24;0.10;;;0.08;;
21675;SDS011;10999;51.332;9.458;2023-01-15T01:45:52;1.20;;;0.20;;
21675;SDS011;10999;51.332;9.458;2023-01-15T01:48:20;0.38;;;0.10;;
21675;SDS011;10999;51.332;9.458;2023-01-15T01:50:59;1.42;;;0.13;;
21675;SDS011;10999;51.332;9.458;2023-01-15T01:53:28;0.50;;;0.15;;
21675;SDS011;10999;51.332;9.458;2023-01-15T01:55:57;0.70;;;0.22;;
21675;SDS011;10999;51.332;9.458;2023-01-15T01:58:27;0.52;;;0.15;;
21675;SDS011;10999;51.332;9.458;2023-01-15T02:00:57;0.20;;;0.10;;
21675;SDS011;10999;51.332;9.458;2023-01-15T02:03:28;0.40;;;0.10;;
21675;SDS011;10999;51.332;9.458;2023-01-15T02:05:58;1.17;;;0.30;;
21675;SDS011;10999;51.332;9.458;2023-01-15T02:08:28;0.10;;;0.10;;
21675;SDS011;10999;51.332;9.458;2023-01-15T02:10:57;0.45;;;0.22;;
21675;SDS011;10999;51.332;9.458;2023-01-15T02:16:02;1.55;;;0.20;;
21675;SDS011;10999;51.332;9.458;2023-01-15T02:18:35;0.20;;;0.20;;
21675;SDS011;10999;51.332;9.458;2023-01-15T02:21:21;0.80;;;0.20;;
21675;SDS011;10999;51.332;9.458;2023-01-15T02:29:01;0.20;;;0.17;;
21675;SDS011;10999;51.332;9.458;2023-01-15T02:31:33;1.35;;;0.30;;
21675;SDS011;10999;51.332;9.458;2023-01-15T02:34:03;0.75;;;0.25;;
21675;SDS011;10999;51.332;9.458;2023-01-15T02:36:36;1.90;;;0.30;;
21675;SDS011;10999;51.332;9.458;2023-01-15T02:39:07;1.13;;;0.20;;
21675;SDS011;10999;51.332;9.458;2023-01-15T02:41:37;1.15;;;0.30;;
21675;SDS011;10999;51.332;9.458;2023-01-15T02:44:08;0.77;;;0.30;;
21675;SDS011;10999;51.332;9.458;2023-01-15T02:46:37;1.35;;;0.20;;
21675;SDS011;10999;51.332;9.458;2023-01-15T02:49:06;0.98;;;0.28;;
21675;SDS011;10999;51.332;9.458;2023-01-15T02:51:37;1.02;;;0.55;;
21675;SDS011;10999;51.332;9.458;2023-01-15T02:54:11;2.40;;;0.50;;
21675;SDS011;10999;51.332;9.458;2023-01-15T02:56:41;0.88;;;0.30;;
21675;SDS011;10999;51.332;9.458;2023-01-15T02:59:12;0.35;;;0.20;;
21675;SDS011;10999;51.332;9.458;2023-01-15T03:02:07;0.35;;;0.20;;
21675;SDS011;10999;51.332;9.458;2023-01-15T03:04:37;0.20;;;0.20;;
21675;SDS011;10999;51.332;9.458;2023-01-15T03:07:11;0.52;;;0.20;;
21675;SDS011;10999;51.332;9.458;2023-01-15T03:09:44;0.88;;;0.15;;
21675;SDS011;10999;51.332;9.458;2023-01-15T03:17:17;0.77;;;0.25;;
21675;SDS011;10999;51.332;9.458;2023-01-15T03:20:01;5.05;;;0.30;;
21675;SDS011;10999;51.332;9.458;2023-01-15T03:22:43;0.32;;;0.20;;
21675;SDS011;10999;51.332;9.458;2023-01-15T03:25:15;0.50;;;0.22;;
21675;SDS011;10999;51.332;9.458;2023-01-15T03:27:45;0.65;;;0.30;;
21675;SDS011;10999;51.332;9.458;2023-01-15T03:30:14;0.17;;;0.17;;
21675;SDS011;10999;51.332;9.458;2023-01-15T03:32:43;1.45;;;0.55;;
21675;SDS011;10999;51.332;9.458;2023-01-15T03:38:29;1.13;;;0.30;;
21675;SDS011;10999;51.332;9.458;2023-01-15T03:49:31;1.40;;;0.20;;
21675;SDS011;10999;51.332;9.458;2023-01-15T03:52:37;0.63;;;0.20;;
21675;SDS011;10999;51.332;9.458;2023-01-15T04:00:18;0.85;;;0.10;;
21675;SDS011;10999;51.332;9.458;2023-01-15T04:02:50;0.25;;;0.00;;
21675;SDS011;10999;51.332;9.458;2023-01-15T04:05:20;0.17;;;0.10;;
21675;SDS011;10999;51.332;9.458;2023-01-15T04:07:48;0.10;;;0.08;;
21675;SDS011;10999;51.332;9.458;2023-01-15T04:10:16;0.30;;;0.17;;
21675;SDS011;10999;51.332;9.458;2023-01-15T04:12:42;0.28;;;0.10;;
21675;SDS011;10999;51.332;9.458;2023-01-15T04:15:10;0.40;;;0.10;;
21675;SDS011;10999;51.332;9.458;2023-01-15T04:17:37;0.00;;;0.00;;
21675;SDS011;10999;51.332;9.458;2023-01-15T04:20:04;0.90;;;0.10;;
21675;SDS011;10999;51.332;9.458;2023-01-15T04:22:32;0.00;;;0.00;;
21675;SDS011;10999;51.332;9.458;2023-01-15T04:24:58;0.03;;;0.00;;
21675;SDS011;10999;51.332;9.458;2023-01-15T04:27:25;0.30;;;0.10;;
21675;SDS011;10999;51.332;9.458;2023-01-15T04:29:52;0.25;;;0.08;;
21675;SDS011;10999;51.332;9.458;2023-01-15T04:32:19;0.85;;;0.20;;
21675;SDS011;10999;51.332;9.458;2023-01-15T04:34:46;0.00;;;0.00;;
21675;SDS011;10999;51.332;9.458;2023-01-15T04:37:13;0.63;;;0.10;;
21675;SDS011;10999;51.332;9.458;2023-01-15T04:39:40;0.15;;;0.03;;
21675;SDS011;10999;51.332;9.458;2023-01-15T04:42:11;0.45;;;0.10;;
21675;SDS011;10999;51.332;9.458;2023-01-15T04:44:57;0.73;;;0.10;;
21675;SDS011;10999;51.332;9.458;2023-01-15T04:47:24;0.35;;;0.08;;
21675;SDS011;10999;51.332;9.458;2023-01-15T04:49:50;0.20;;;0.05;;
21675;SDS011;10999;51.332;9.458;2023-01-15T04:52:17;0.38;;;0.20;;
21675;SDS011;10999;51.332;9.458;2023-01-15T04:54:44;1.20;;;0.10;;
21675;SDS011;10999;51.332;9.458;2023-01-15T04:57:11;0.10;;;0.10;;
21675;SDS011;10999;51.332;9.458;2023-01-15T04:59:37;0.00;;;0.00;;
21675;SDS011;10999;51.332;9.458;2023-01-15T05:02:04;0.05;;;0.00;;
21675;SDS011;10999;51.332;9.458;2023-01-15T05:04:33;0.43;;;0.10;;
21675;SDS011;10999;51.332;9.458;2023-01-15T05:07:00;0.77;;;0.10;;
21675;SDS011;10999;51.332;9.458;2023-01-15T05:09:28;0.13;;;0.00;;
21675;SDS011;10999;51.332;9.458;2023-01-15T05:11:55;0.00;;;0.00;;
21675;SDS011;10999;51.332;9.458;2023-01-15T05:14:21;1.45;;;0.05;;
21675;SDS011;10999;51.332;9.458;2023-01-15T05:16:48;0.00;;;0.00;;
21675;SDS011;10999;51.332;9.458;2023-01-15T05:19:15;0.88;;;0.10;;
21675;SDS011;10999;51.332;9.458;2023-01-15T05:21:42;0.00;;;0.00;;
21675;SDS011;10999;51.332;9.458;2023-01-15T05:24:10;1.10;;;0.00;;
21675;SDS011;10999;51.332;9.458;2023-01-15T05:26:40;1.75;;;0.10;;
21675;SDS011;10999;51.332;9.458;2023-01-15T05:29:07;0.73;;;0.30;;
21675;SDS011;10999;51.332;9.458;2023-01-15T05:31:35;2.95;;;0.20;;
21675;SDS011;10999;51.332;9.458;2023-01-15T05:34:01;0.10;;;0.00;;
21675;SDS011;10999;51.332;9.458;2023-01-15T05:36:29;1.48;;;0.20;;
21675;SDS011;10999;51.332;9.458;2023-01-15T05:38:57;1.17;;;0.10;;
21675;SDS011;10999;51.332;9.458;2023-01-15T05:41:27;0.77;;;0.17;;
21675;SDS011;10999;51.332;9.458;2023-01-15T05:44:14;0.65;;;0.20;;
21675;SDS011;10999;51.332;9.458;2023-01-15T05:46:42;1.08;;;0.20;;
21675;SDS011;10999;51.332;9.458;2023-01-15T05:49:11;0.20;;;0.20;;
21675;SDS011;10999;51.332;9.458;2023-01-15T05:51:39;0.25;;;0.10;;
21675;SDS011;10999;51.332;9.458;2023-01-15T05:54:08;0.00;;;0.00;;
21675;SDS011;10999;51.332;9.458;2023-01-15T05:56:37;0.22;;;0.20;;
21675;SDS011;10999;51.332;9.458;2023-01-15T05:59:05;0.28;;;0.20;;
21675;SDS011;10999;51.332;9.458;2023-01-15T06:01:32;1.52;;;0.20;;
21675;SDS011;10999;51.332;9.458;2023-01-15T06:03:59;0.57;;;0.10;;
21675;SDS011;10999;51.332;9.458;2023-01-15T06:06:28;1.20;;;0.00;;
21675;SDS011;10999;51.332;9.458;2023-01-15T06:08:55;0.00;;;0.00;;
21675;SDS011;10999;51.332;9.458;2023-01-15T06:11:21;0.52;;;0.00;;
21675;SDS011;10999;51.332;9.458;2023-01-15T06:13:49;0.68;;;0.17;;
21675;SDS011;10999;51.332;9.458;2023-01-15T06:16:16;0.52;;;0.13;;
21675;SDS011;10999;51.332;9.458;2023-01-15T06:18:43;0.30;;;0.20;;
21675;SDS011;10999;51.332;9.458;2023-01-15T06:21:11;0.63;;;0.30;;
21675;SDS011;10999;51.332;9.458;2023-01-15T06:23:38;1.65;;;0.25;;
21675;SDS011;10999;51.332;9.458;2023-01-15T06:26:07;0.55;;;0.20;;
21675;SDS011;10999;51.332;9.458;2023-01-15T06:28:36;1.20;;;0.10;;
21675;SDS011;10999;51.332;9.458;2023-01-15T06:31:03;3.13;;;0.20;;
21675;SDS011;10999;51.332;9.458;2023-01-15T06:33:32;2.65;;;0.30;;
21675;SDS011;10999;51.332;9.458;2023-01-15T06:36:03;0.73;;;0.10;;
21675;SDS011;10999;51.332;9.458;2023-01-15T06:38:31;0.15;;;0.10;;
21675;SDS011;10999;51.332;9.458;2023-01-15T06:41:01;0.22;;;0.10;;
21675;SDS011;10999;51.332;9.458;2023-01-15T06:43:29;1.08;;;0.28;;
21675;SDS011;10999;51.332;9.458;2023-01-15T06:46:14;0.00;;;0.00;;
21675;SDS011;10999;51.332;9.458;2023-01-15T06:49:00;0.45;;;0.08;;
21675;SDS011;10999;51.332;9.458;2023-01-15T06:51:27;0.30;;;0.10;;
21675;SDS011;10999;51.332;9.458;2023-01-15T06:53:56;0.93;;;0.20;;
21675;SDS011;10999;51.332;9.458;2023-01-15T06:56:23;0.98;;;0.20;;
21675;SDS011;10999;51.332;9.458;2023-01-15T06:58:49;1.80;;;0.10;;
21675;SDS011;10999;51.332;9.458;2023-01-15T07:01:16;1.45;;;0.20;;
21675;SDS011;10999;51.332;9.458;2023-01-15T07:03:43;0.40;;;0.20;;
21675;SDS011;10999;51.332;9.458;2023-01-15T07:06:11;0.50;;;0.20;;
21675;SDS011;10999;51.332;9.458;2023-01-15T07:08:38;1.77;;;0.57;;
21675;SDS011;10999;51.332;9.458;2023-01-15T07:11:06;0.77;;;0.17;;
21675;SDS011;10999;51.332;9.458;2023-01-15T07:13:35;3.00;;;0.22;;
21675;SDS011;10999;51.332;9.458;2023-01-15T07:16:02;0.90;;;0.20;;
21675;SDS011;10999;51.332;9.458;2023-01-15T07:18:30;1.08;;;0.25;;
21675;SDS011;10999;51.332;9.458;2023-01-15T07:20:58;1.15;;;0.20;;
21675;SDS011;10999;51.332;9.458;2023-01-15T07:23:26;1.52;;;0.17;;
21675;SDS011;10999;51.332;9.458;2023-01-15T07:25:53;3.20;;;0.40;;
21675;SDS011;10999;51.332;9.458;2023-01-15T07:28:21;0.40;;;0.20;;
21675;SDS011;10999;51.332;9.458;2023-01-15T07:30:49;0.65;;;0.20;;
21675;SDS011;10999;51.332;9.458;2023-01-15T07:33:16;1.13;;;0.25;;
21675;SDS011;10999;51.332;9.458;2023-01-15T07:35:42;1.35;;;0.20;;
21675;SDS011;10999;51.332;9.458;2023-01-15T07:38:09;1.27;;;0.25;;
21675;SDS011;10999;51.332;9.458;2023-01-15T07:40:36;0.57;;;0.08;;
21675;SDS011;10999;51.332;9.458;2023-01-15T07:43:03;0.75;;;0.20;;
21675;SDS011;10999;51.332;9.458;2023-01-15T07:45:49;0.98;;;0.30;;
21675;SDS011;10999;51.332;9.458;2023-01-15T07:51:19;0.22;;;0.10;;
21675;SDS011;10999;51.332;9.458;2023-01-15T07:53:46;1.05;;;0.25;;
21675;SDS011;10999;51.332;9.458;2023-01-15T07:56:14;0.82;;;0.20;;
21675;SDS011;10999;51.332;9.458;2023-01-15T07:58:41;0.32;;;0.30;;
21675;SDS011;10999;51.332;9.458;2023-01-15T08:01:09;3.00;;;0.52;;
21675;SDS011;10999;51.332;9.458;2023-01-15T08:03:36;1.48;;;0.40;;
21675;SDS011;10999;51.332;9.458;2023-01-15T08:06:03;1.08;;;0.40;;
21675;SDS011;10999;51.332;9.458;2023-01-15T08:08:30;1.90;;;0.30;;
21675;SDS011;10999;51.332;9.458;2023-01-15T08:11:00;0.68;;;0.20;;
21675;SDS011;10999;51.332;9.458;2023-01-15T08:13:45;2.75;;;0.30;;
21675;SDS011;10999;51.332;9.458;2023-01-15T08:16:33;1.80;;;0.47;;
21675;SDS011;10999;51.332;9.458;2023-01-15T08:19:01;1.30;;;0.25;;
21675;SDS011;10999;51.332;9.458;2023-01-15T08:21:28;2.72;;;0.30;;
21675;SDS011;10999;51.332;9.458;2023-01-15T08:23:55;0.80;;;0.20;;
21675;SDS011;10999;51.332;9.458;2023-01-15T08:26:21;1.48;;;0.47;;
21675;SDS011;10999;51.332;9.458;2023-01-15T08:28:48;2.33;;;0.40;;
21675;SDS011;10999;51.332;9.458;2023-01-15T08:31:15;1.38;;;0.30;;
21675;SDS011;10999;51.332;9.458;2023-01-15T08:33:41;3.65;;;0.45;;
21675;SDS011;10999;51.332;9.458;2023-01-15T08:36:08;1.40;;;0.30;;
21675;SDS011;10999;51.332;9.458;2023-01-15T08:38:35;1.33;;;0.30;;
21675;SDS011;10999;51.332;9.458;2023-01-15T08:41:02;1.48;;;0.40;;
21675;SDS011;10999;51.332;9.458;2023-01-15T08:43:30;2.58;;;0.43;;
21675;SDS011;10999;51.332;9.458;2023-01-15T08:45:58;3.58;;;0.60;;
21675;SDS011;10999;51.332;9.458;2023-01-15T08:48:27;2.30;;;0.50;;
21675;SDS011;10999;51.332;9.458;2023-01-15T08:50:55;1.55;;;0.30;;
21675;SDS011;10999;51.332;9.458;2023-01-15T08:53:22;2.50;;;0.50;;
21675;SDS011;10999;51.332;9.458;2023-01-15T08:55:49;2.33;;;0.30;;
21675;SDS011;10999;51.332;9.458;2023-01-15T08:58:16;0.63;;;0.28;;
21675;SDS011;10999;51.332;9.458;2023-01-15T09:00:43;1.77;;;0.50;;
21675;SDS011;10999;51.332;9.458;2023-01-15T09:03:10;1.67;;;0.35;;
21675;SDS011;10999;51.332;9.458;2023-01-15T09:05:36;1.08;;;0.30;;
21675;SDS011;10999;51.332;9.458;2023-01-15T09:08:04;5.00;;;0.38;;
21675;SDS011;10999;51.332;9.458;2023-01-15T09:10:32;2.80;;;0.60;;
21675;SDS011;10999;51.332;9.458;2023-01-15T09:13:02;1.13;;;0.40;;
21675;SDS011;10999;51.332;9.458;2023-01-15T09:15:30;0.65;;;0.20;;
21675;SDS011;10999;51.332;9.458;2023-01-15T09:17:58;2.05;;;0.22;;
21675;SDS011;10999;51.332;9.458;2023-01-15T09:20:25;1.10;;;0.47;;
21675;SDS011;10999;51.332;9.458;2023-01-15T09:22:52;1.13;;;0.30;;
21675;SDS011;10999;51.332;9.458;2023-01-15T09:25:19;2.17;;;0.50;;
21675;SDS011;10999;51.332;9.458;2023-01-15T09:27:49;2.22;;;0.60;;
21675;SDS011;10999;51.332;9.458;2023-01-15T09:30:17;0.43;;;0.20;;
21675;SDS011;10999;51.332;9.458;2023-01-15T09:32:45;3.15;;;0.60;;
21675;SDS011;10999;51.332;9.458;2023-01-15T09:35:13;3.60;;;0.50;;
21675;SDS011;10999;51.332;9.458;2023-01-15T09:37:40;3.25;;;0.40;;
21675;SDS011;10999;51.332;9.458;2023-01-15T09:40:10;1.55;;;0.60;;
21675;SDS011;10999;51.332;9.458;2023-01-15T09:43:05;1.45;;;0.60;;
21675;SDS011;10999;51.332;9.458;2023-01-15T09:45:49;3.22;;;0.70;;
21675;SDS011;10999;51.332;9.458;2023-01-15T09:54:05;1.38;;;0.50;;
21675;SDS011;10999;51.332;9.458;2023-01-15T09:56:45;1.67;;;0.40;;
21675;SDS011;10999;51.332;9.458;2023-01-15T09:59:34;2.58;;;0.40;;
21675;SDS011;10999;51.332;9.458;2023-01-15T10:02:02;1.77;;;0.52;;
21675;SDS011;10999;51.332;9.458;2023-01-15T10:04:42;3.10;;;0.35;;
21675;SDS011;10999;51.332;9.458;2023-01-15T10:09:46;0.63;;;0.32;;
21675;SDS011;10999;51.332;9.458;2023-01-15T10:12:24;0.77;;;0.30;;
21675;SDS011;10999;51.332;9.458;2023-01-15T10:15:13;2.05;;;0.30;;
21675;SDS011;10999;51.332;9.458;2023-01-15T10:17:41;3.85;;;0.40;;
21675;SDS011;10999;51.332;9.458;2023-01-15T10:20:30;1.80;;;0.40;;
21675;SDS011;10999;51.332;9.458;2023-01-15T10:23:11;2.30;;;0.75;;
21675;SDS011;10999;51.332;9.458;2023-01-15T10:26:02;1.75;;;0.30;;
21675;SDS011;10999;51.332;9.458;2023-01-15T10:29:03;2.97;;;0.68;;
21675;SDS011;10999;51.332;9.458;2023-01-15T10:37:25;1.30;;;0.40;;
21675;SDS011;10999;51.332;9.458;2023-01-15T10:51:05;1.17;;;0.20;;
21675;SDS011;10999;51.332;9.458;2023-01-15T10:53:41;2.00;;;0.80;;
21675;SDS011;10999;51.332;9.458;2023-01-15T10:56:11;0.60;;;0.25;;
21675;SDS011;10999;51.332;9.458;2023-01-15T10:59:10;2.53;;;0.50;;
21675;SDS011;10999;51.332;9.458;2023-01-15T11:01:48;0.75;;;0.20;;
21675;SDS011;10999;51.332;9.458;2023-01-15T11:04:19;0.50;;;0.20;;
21675;SDS011;10999;51.332;9.458;2023-01-15T11:06:46;1.73;;;0.35;;
21675;SDS011;10999;51.332;9.458;2023-01-15T11:09:19;1.65;;;0.30;;
21675;SDS011;10999;51.332;9.458;2023-01-15T11:11:49;1.48;;;0.30;;
21675;SDS011;10999;51.332;9.458;2023-01-15T11:14:37;1.40;;;0.35;;
21675;SDS011;10999;51.332;9.458;2023-01-15T11:17:28;0.30;;;0.20;;
21675;SDS011;10999;51.332;9.458;2023-01-15T11:20:24;0.38;;;0.20;;
21675;SDS011;10999;51.332;9.458;2023-01-15T11:23:07;0.35;;;0.10;;
21675;SDS011;10999;51.332;9.458;2023-01-15T11:25:37;0.60;;;0.28;;
21675;SDS011;10999;51.332;9.458;2023-01-15T11:28:09;0.60;;;0.20;;
21675;SDS011;10999;51.332;9.458;2023-01-15T11:30:40;1.10;;;0.30;;
21675;SDS011;10999;51.332;9.458;2023-01-15T11:33:20;1.73;;;0.32;;
21675;SDS011;10999;51.332;9.458;2023-01-15T11:35:53;1.50;;;0.43;;
21675;SDS011;10999;51.332;9.458;2023-01-15T11:38:27;1.60;;;0.40;;
21675;SDS011;10999;51.332;9.458;2023-01-15T11:43:26;0.63;;;0.20;;
21675;SDS011;10999;51.332;9.458;2023-01-15T11:46:22;0.52;;;0.20;;
21675;SDS011;10999;51.332;9.458;2023-01-15T11:49:13;0.30;;;0.20;;
21675;SDS011;10999;51.332;9.458;2023-01-15T11:52:06;1.50;;;0.25;;
21675;SDS011;10999;51.332;9.458;2023-01-15T11:54:36;3.33;;;0.43;;
21675;SDS011;10999;51.332;9.458;2023-01-15T11:57:23;2.47;;;0.63;;
21675;SDS011;10999;51.332;9.458;2023-01-15T11:59:55;2.10;;;0.40;;
21675;SDS011;10999;51.332;9.458;2023-01-15T12:02:30;1.60;;;0.57;;
21675;SDS011;10999;51.332;9.458;2023-01-15T12:05:03;0.68;;;0.32;;
21675;SDS011;10999;51.332;9.458;2023-01-15T12:07:31;1.00;;;0.35;;
21675;SDS011;10999;51.332;9.458;2023-01-15T12:13:13;1.67;;;0.38;;
21675;SDS011;10999;51.332;9.458;2023-01-15T12:21:16;2.10;;;0.30;;
21675;SDS011;10999;51.332;9.458;2023-01-15T12:29:25;1.05;;;0.38;;
21675;SDS011;10999;51.332;9.458;2023-01-15T12:31:57;1.10;;;0.43;;
21675;SDS011;10999;51.332;9.458;2023-01-15T12:37:11;1.38;;;0.47;;
21675;SDS011;10999;51.332;9.458;2023-01-15T12:42:33;0.43;;;0.20;;
21675;SDS011;10999;51.332;9.458;2023-01-15T12:45:20;2.30;;;0.60;;
21675;SDS011;10999;51.332;9.458;2023-01-15T12:53:18;3.80;;;0.60;;
21675;SDS011;10999;51.332;9.458;2023-01-15T12:58:30;4.13;;;0.40;;
21675;SDS011;10999;51.332;9.458;2023-01-15T13:01:13;5.63;;;0.90;;
21675;SDS011;10999;51.332;9.458;2023-01-15T13:06:14;3.50;;;0.80;;
21675;SDS011;10999;51.332;9.458;2023-01-15T13:08:47;4.57;;;0.80;;
21675;SDS011;10999;51.332;9.458;2023-01-15T13:11:21;1.77;;;0.60;;
21675;SDS011;10999;51.332;9.458;2023-01-15T13:13:48;4.47;;;1.02;;
21675;SDS011;10999;51.332;9.458;2023-01-15T13:16:27;7.95;;;0.70;;
21675;SDS011;10999;51.332;9.458;2023-01-15T13:22:20;2.50;;;0.40;;
21675;SDS011;10999;51.332;9.458;2023-01-15T13:27:53;2.13;;;0.40;;
21675;SDS011;10999;51.332;9.458;2023-01-15T13:30:42;2.88;;;0.40;;
21675;SDS011;10999;51.332;9.458;2023-01-15T13:33:35;2.03;;;0.60;;
21675;SDS011;10999;51.332;9.458;2023-01-15T13:36:13;2.78;;;0.32;;
21675;SDS011;10999;51.332;9.458;2023-01-15T13:38:44;4.90;;;0.60;;
21675;SDS011;10999;51.332;9.458;2023-01-15T13:41:17;2.33;;;0.60;;
21675;SDS011;10999;51.332;9.458;2023-01-15T13:44:19;6.38;;;0.80;;
21675;SDS011;10999;51.332;9.458;2023-01-15T13:46:56;4.63;;;0.40;;
21675;SDS011;10999;51.332;9.458;2023-01-15T13:49:32;5.88;;;1.00;;
21675;SDS011;10999;51.332;9.458;2023-01-15T13:52:01;1.70;;;0.38;;
21675;SDS011;10999;51.332;9.458;2023-01-15T13:54:31;1.20;;;0.35;;
21675;SDS011;10999;51.332;9.458;2023-01-15T13:57:21;3.55;;;0.65;;
21675;SDS011;10999;51.332;9.458;2023-01-15T13:59:50;1.98;;;0.40;;
21675;SDS011;10999;51.332;9.458;2023-01-15T14:02:27;0.88;;;0.50;;
21675;SDS011;10999;51.332;9.458;2023-01-15T14:04:56;6.43;;;1.00;;
21675;SDS011;10999;51.332;9.458;2023-01-15T14:07:31;2.05;;;0.50;;
21675;SDS011;10999;51.332;9.458;2023-01-15T14:10:35;4.75;;;0.77;;
21675;SDS011;10999;51.332;9.458;2023-01-15T14:18:35;3.78;;;0.70;;
21675;SDS011;10999;51.332;9.458;2023-01-15T14:21:07;2.55;;;0.50;;
21675;SDS011;10999;51.332;9.458;2023-01-15T14:23:51;2.78;;;0.50;;
21675;SDS011;10999;51.332;9.458;2023-01-15T14:26:39;2.40;;;0.50;;
21675;SDS011;10999;51.332;9.458;2023-01-15T14:32:11;4.97;;;0.80;;
21675;SDS011;10999;51.332;9.458;2023-01-15T14:34:54;2.60;;;0.80;;
21675;SDS011;10999;51.332;9.458;2023-01-15T14:37:25;4.63;;;0.70;;
21675;SDS011;10999;51.332;9.458;2023-01-15T14:39:59;2.35;;;0.60;;
21675;SDS011;10999;51.332;9.458;2023-01-15T14:42:30;3.95;;;0.88;;
21675;SDS011;10999;51.332;9.458;2023-01-15T14:45:32;4.20;;;1.10;;
21675;SDS011;10999;51.332;9.458;2023-01-15T14:50:42;6.35;;;1.08;;
21675;SDS011;10999;51.332;9.458;2023-01-15T14:55:37;7.03;;;1.50;;
21675;SDS011;10999;51.332;9.458;2023-01-15T14:58:53;5.05;;;1.10;;
21675;SDS011;10999;51.332;9.458;2023-01-15T15:03:50;3.00;;;0.40;;
21675;SDS011;10999;51.332;9.458;2023-01-15T15:06:23;2.60;;;0.52;;
21675;SDS011;10999;51.332;9.458;2023-01-15T15:08:53;5.22;;;0.90;;
21675;SDS011;10999;51.332;9.458;2023-01-15T15:11:34;1.73;;;0.60;;
21675;SDS011;10999;51.332;9.458;2023-01-15T15:14:24;4.68;;;0.77;;
21675;SDS011;10999;51.332;9.458;2023-01-15T15:16:52;1.55;;;0.52;;
21675;SDS011;10999;51.332;9.458;2023-01-15T15:19:27;5.45;;;0.75;;
21675;SDS011;10999;51.332;9.458;2023-01-15T15:21:58;5.00;;;1.23;;
21675;SDS011;10999;51.332;9.458;2023-01-15T15:24:33;1.92;;;0.52;;
21675;SDS011;10999;51.332;9.458;2023-01-15T15:27:13;2.08;;;0.40;;
21675;SDS011;10999;51.332;9.458;2023-01-15T15:29:44;2.33;;;0.70;;
21675;SDS011;10999;51.332;9.458;2023-01-15T15:32:14;2.90;;;0.68;;
21675;SDS011;10999;51.332;9.458;2023-01-15T15:34:46;3.78;;;1.27;;
21675;SDS011;10999;51.332;9.458;2023-01-15T15:37:18;6.65;;;0.95;;
21675;SDS011;10999;51.332;9.458;2023-01-15T15:42:39;2.85;;;0.70;;
21675;SDS011;10999;51.332;9.458;2023-01-15T15:45:29;3.15;;;0.82;;
21675;SDS011;10999;51.332;9.458;2023-01-15T15:48:27;3.33;;;0.60;;
21675;SDS011;10999;51.332;9.458;2023-01-15T15:54:02;5.70;;;0.60;;
21675;SDS011;10999;51.332;9.458;2023-01-15T15:56:29;4.30;;;0.68;;
21675;SDS011;10999;51.332;9.458;2023-01-15T15:58:58;3.40;;;0.68;;
21675;SDS011;10999;51.332;9.458;2023-01-15T16:01:25;2.65;;;0.90;;
21675;SDS011;10999;51.332;9.458;2023-01-15T16:03:52;4.78;;;0.90;;
21675;SDS011;10999;51.332;9.458;2023-01-15T16:06:21;1.52;;;0.60;;
21675;SDS011;10999;51.332;9.458;2023-01-15T16:08:54;3.33;;;0.50;;
21675;SDS011;10999;51.332;9.458;2023-01-15T16:11:26;6.40;;;0.95;;
21675;SDS011;10999;51.332;9.458;2023-01-15T16:13:53;2.35;;;0.70;;
21675;SDS011;10999;51.332;9.458;2023-01-15T16:16:23;3.25;;;0.80;;
21675;SDS011;10999;51.332;9.458;2023-01-15T16:18:53;3.05;;;0.60;;
21675;SDS011;10999;51.332;9.458;2023-01-15T16:24:00;4.65;;;1.13;;
21675;SDS011;10999;51.332;9.458;2023-01-15T16:26:31;2.53;;;0.68;;
21675;SDS011;10999;51.332;9.458;2023-01-15T16:29:06;4.93;;;0.90;;
21675;SDS011;10999;51.332;9.458;2023-01-15T16:31:52;3.13;;;0.52;;
21675;SDS011;10999;51.332;9.458;2023-01-15T16:34:22;4.03;;;0.82;;
21675;SDS011;10999;51.332;9.458;2023-01-15T16:36:53;3.90;;;0.80;;
21675;SDS011;10999;51.332;9.458;2023-01-15T16:39:24;3.58;;;0.65;;
21675;SDS011;10999;51.332;9.458;2023-01-15T16:41:56;1.67;;;0.63;;
21675;SDS011;10999;51.332;9.458;2023-01-15T16:44:24;3.03;;;0.75;;
21675;SDS011;10999;51.332;9.458;2023-01-15T16:47:22;3.45;;;0.90;;
21675;SDS011;10999;51.332;9.458;2023-01-15T16:49:51;2.40;;;0.70;;
21675;SDS011;10999;51.332;9.458;2023-01-15T16:52:45;3.90;;;0.93;;
21675;SDS011;10999;51.332;9.458;2023-01-15T16:55:34;2.95;;;0.90;;
21675;SDS011;10999;51.332;9.458;2023-01-15T17:00:43;3.05;;;0.85;;
21675;SDS011;10999;51.332;9.458;2023-01-15T17:03:17;2.10;;;0.60;;
21675;SDS011;10999;51.332;9.458;2023-01-15T17:06:10;1.80;;;0.70;;
21675;SDS011;10999;51.332;9.458;2023-01-15T17:08:38;5.20;;;1.00;;
21675;SDS011;10999;51.332;9.458;2023-01-15T17:11:16;3.90;;;0.77;;
21675;SDS011;10999;51.332;9.458;2023-01-15T17:13:49;3.25;;;0.85;;
21675;SDS011;10999;51.332;9.458;2023-01-15T17:16:17;4.40;;;1.05;;
21675;SDS011;10999;51.332;9.458;2023-01-15T17:18:46;4.10;;;0.75;;
21675;SDS011;10999;51.332;9.458;2023-01-15T17:21:18;5.78;;;1.27;;
21675;SDS011;10999;51.332;9.458;2023-01-15T17:23:48;3.80;;;0.93;;
21675;SDS011;10999;51.332;9.458;2023-01-15T17:26:19;2.05;;;0.50;;